Time;durP1;ratioP1;P1;durP2;ratioP2;P2;SDS_P1;SDS_P2;PMS_P1;PMS_P2;Temp;Humidity;BMP_temperature;BMP_pressure;BME280_temperature;BME280_humidity;BME280_pressure;Samples;Min_cycle;Max_cycle;Signal;HPM_P1;HPM_P2
2022/06/04 00:00:53;;;;;;;2.85;1.20;;;20.20;62.40;;;;;;5017801;28;20021;-83
2022/06/04 00:03:19;;;;;;;4.15;1.70;;;20.10;62.50;;;;;;5024570;28;20022;-84
2022/06/04 00:05:49;;;;;;;3.40;1.48;;;20.10;62.70;;;;;;5015090;28;20428;-84
2022/06/04 00:08:14;;;;;;;2.85;1.30;;;20.00;62.80;;;;;;5025186;28;20052;-84
2022/06/04 00:16:17;;;;;;;5.40;1.60;;;19.90;63.30;;;;;;5037413;28;20024;-84
2022/06/04 00:18:43;;;;;;;2.35;1.50;;;19.80;63.40;;;;;;5011082;28;20032;-84
2022/06/04 00:21:11;;;;;;;2.67;1.60;;;19.80;63.60;;;;;;5002206;28;20395;-84
2022/06/04 00:23:38;;;;;;;3.42;1.60;;;19.70;63.80;;;;;;5030872;28;20022;-84
2022/06/04 00:26:07;;;;;;;4.22;1.92;;;19.70;63.90;;;;;;5019271;28;20029;-84
2022/06/04 00:28:33;;;;;;;4.63;1.60;;;19.60;64.00;;;;;;5056417;28;20385;-84
2022/06/04 00:30:59;;;;;;;5.72;1.90;;;19.60;64.20;;;;;;5055969;28;20055;-84
2022/06/04 00:33:25;;;;;;;5.78;1.50;;;19.50;64.20;;;;;;5007170;28;20036;-84
2022/06/04 00:35:54;;;;;;;3.42;1.70;;;19.50;64.50;;;;;;5039201;28;20406;-84
2022/06/04 00:38:22;;;;;;;5.43;1.42;;;19.50;64.80;;;;;;5019521;28;20020;-84
2022/06/04 00:41:13;;;;;;;2.88;1.52;;;19.40;64.90;;;;;;5018372;28;20466;-84
2022/06/04 00:43:55;;;;;;;;;;;19.40;65.10;;;;;;5018815;28;20048;-84
2022/06/04 00:46:41;;;;;;;5.15;1.80;;;19.30;65.60;;;;;;5031778;28;20318;-84
2022/06/04 00:49:09;;;;;;;2.92;1.48;;;19.30;65.40;;;;;;5033834;28;20112;-84
2022/06/04 00:51:36;;;;;;;4.22;1.65;;;19.20;65.50;;;;;;5055765;28;20078;-83
2022/06/04 00:54:03;;;;;;;3.50;1.80;;;19.20;65.60;;;;;;5011024;28;20018;-84
2022/06/04 00:56:40;;;;;;;2.85;1.58;;;19.10;65.60;;;;;;5022316;28;20024;-84
2022/06/04 00:59:24;;;;;;;2.35;1.50;;;19.10;65.70;;;;;;5035994;28;20026;-84
2022/06/04 01:02:17;;;;;;;4.15;1.65;;;19.10;66.10;;;;;;5055665;28;20047;-84
2022/06/04 01:05:01;;;;;;;4.30;1.92;;;19.00;65.90;;;;;;5011211;28;20030;-84
2022/06/04 01:08:02;;;;;;;4.18;1.60;;;19.00;65.90;;;;;;5034371;28;20426;-84
2022/06/04 01:10:46;;;;;;;3.63;1.80;;;18.90;66.10;;;;;;5017944;28;20021;-84
2022/06/04 01:13:36;;;;;;;4.38;1.92;;;18.90;66.20;;;;;;5031259;28;20379;-83
2022/06/04 01:16:07;;;;;;;4.28;2.13;;;18.90;66.60;;;;;;5020243;28;20375;-84
2022/06/04 01:18:41;;;;;;;2.88;2.03;;;18.80;66.60;;;;;;5028470;28;20048;-84
2022/06/04 01:21:34;;;;;;;4.60;2.03;;;18.80;66.80;;;;;;5034954;28;20033;-83
2022/06/04 01:24:27;;;;;;;4.75;2.00;;;18.70;66.80;;;;;;5034117;28;20026;-84
2022/06/04 01:26:56;;;;;;;4.85;1.90;;;18.70;66.90;;;;;;5034167;28;20017;-84
2022/06/04 01:29:28;;;;;;;4.05;2.00;;;18.60;66.70;;;;;;5042123;28;20104;-84
2022/06/04 01:32:07;;;;;;;4.45;1.92;;;18.60;66.80;;;;;;5034655;28;20056;-83
2022/06/04 01:34:42;;;;;;;5.65;2.58;;;18.60;67.00;;;;;;5040819;28;20034;-84
2022/06/04 01:37:13;;;;;;;3.85;2.05;;;18.50;67.20;;;;;;5015291;28;20076;-83
2022/06/04 01:42:32;;;;;;;2.95;1.85;;;18.50;67.60;;;;;;5047777;28;20094;-83
2022/06/04 01:45:00;;;;;;;3.22;1.95;;;18.50;67.70;;;;;;5031691;28;20456;-84
2022/06/04 01:47:28;;;;;;;6.25;2.40;;;18.40;67.80;;;;;;5017147;28;20391;-84
2022/06/04 01:50:17;;;;;;;4.95;2.45;;;18.40;68.00;;;;;;5045998;28;20028;-83
2022/06/04 01:52:44;;;;;;;4.25;2.00;;;18.40;68.20;;;;;;5014714;28;20610;-83
2022/06/04 01:55:14;;;;;;;5.20;2.08;;;18.40;68.20;;;;;;5014828;28;20025;-83
2022/06/04 01:58:05;;;;;;;5.63;2.33;;;18.30;68.20;;;;;;5000238;28;20758;-84
2022/06/04 02:00:40;;;;;;;3.65;2.05;;;18.30;68.40;;;;;;5009100;28;20382;-83
2022/06/04 02:03:14;;;;;;;5.35;2.25;;;18.30;68.60;;;;;;5002331;28;20021;-83
2022/06/04 02:05:52;;;;;;;4.32;2.42;;;18.30;68.80;;;;;;5030652;28;20017;-83
2022/06/04 02:08:47;;;;;;;3.33;2.10;;;18.20;69.00;;;;;;5034237;28;20045;-84
2022/06/04 02:11:17;;;;;;;5.20;2.58;;;18.20;69.20;;;;;;5007863;28;20036;-83
2022/06/04 02:13:46;;;;;;;4.38;2.28;;;18.20;69.30;;;;;;5033207;28;20470;-83
2022/06/04 02:16:33;;;;;;;5.40;2.20;;;18.10;69.40;;;;;;5016661;28;20048;-83
2022/06/04 02:19:00;;;;;;;5.32;1.90;;;18.10;69.60;;;;;;5033122;28;20025;-83
2022/06/04 02:21:27;;;;;;;4.63;2.20;;;18.10;69.50;;;;;;5000115;28;20049;-83
2022/06/04 02:23:54;;;;;;;4.90;2.40;;;18.10;69.60;;;;;;5013947;28;20037;-83
2022/06/04 02:26:20;;;;;;;4.38;2.10;;;18.00;69.80;;;;;;5014092;28;20112;-83
2022/06/04 02:28:46;;;;;;;5.70;2.42;;;18.00;70.00;;;;;;5019578;28;20096;-83
2022/06/04 02:31:20;;;;;;;6.25;2.50;;;18.00;70.10;;;;;;5016091;28;20467;-84
2022/06/04 02:34:05;;;;;;;6.35;2.35;;;18.00;70.10;;;;;;4998648;28;20529;-84
2022/06/04 02:36:36;;;;;;;4.65;2.38;;;17.90;70.40;;;;;;5032584;28;20025;-84
2022/06/04 02:39:15;;;;;;;;;;;17.90;70.30;;;;;;5002397;28;20026;-84
2022/06/04 02:41:55;;;;;;;5.85;2.28;;;17.90;70.70;;;;;;5033942;28;19905;-84
2022/06/04 02:44:23;;;;;;;5.87;2.80;;;17.90;70.50;;;;;;5034510;28;20079;-83
2022/06/04 02:47:05;;;;;;;6.75;2.70;;;17.80;70.70;;;;;;5031389;28;20487;-83
2022/06/04 02:49:36;;;;;;;5.50;2.30;;;17.80;70.90;;;;;;5016270;28;20017;-84
2022/06/04 02:52:03;;;;;;;3.72;2.08;;;17.70;71.10;;;;;;5013058;28;20387;-84
2022/06/04 02:54:39;;;;;;;5.53;2.05;;;17.70;71.30;;;;;;4986530;28;20030;-84
2022/06/04 02:57:08;;;;;;;4.72;2.33;;;17.70;71.40;;;;;;5026821;28;20036;-84
2022/06/04 02:59:35;;;;;;;6.65;2.58;;;17.70;71.50;;;;;;5002350;28;20022;-84
2022/06/04 03:02:02;;;;;;;2.58;1.90;;;17.70;71.50;;;;;;5030460;28;20032;-84
2022/06/04 03:04:38;;;;;;;5.80;2.55;;;17.60;71.60;;;;;;5029116;28;20025;-84
2022/06/04 03:07:06;;;;;;;5.22;2.67;;;17.60;71.80;;;;;;5031357;28;20145;-84
2022/06/04 03:09:32;;;;;;;5.68;2.85;;;17.60;72.10;;;;;;5012676;28;20395;-84
2022/06/04 03:11:58;;;;;;;5.00;2.45;;;17.60;72.30;;;;;;5012583;28;20105;-84
2022/06/04 03:14:24;;;;;;;4.22;2.50;;;17.60;72.50;;;;;;5025370;28;20037;-84
2022/06/04 03:16:50;;;;;;;6.68;2.70;;;17.50;72.70;;;;;;5035871;28;20038;-84
2022/06/04 03:19:16;;;;;;;5.55;2.50;;;17.50;72.90;;;;;;5048930;28;20030;-84
2022/06/04 03:21:42;;;;;;;6.47;2.53;;;17.50;73.10;;;;;;5033173;28;20077;-84
2022/06/04 03:24:10;;;;;;;8.10;2.80;;;17.50;73.40;;;;;;5010429;28;20022;-84
2022/06/04 03:26:36;;;;;;;7.65;2.75;;;17.40;73.60;;;;;;5033392;28;20056;-84
2022/06/04 03:29:03;;;;;;;5.53;2.47;;;17.40;73.80;;;;;;5032131;28;20471;-84
2022/06/04 03:31:29;;;;;;;5.55;2.38;;;17.40;74.00;;;;;;5032308;28;20439;-84
2022/06/04 03:33:56;;;;;;;7.70;3.00;;;17.40;74.30;;;;;;5015641;28;20056;-83
2022/06/04 03:36:22;;;;;;;6.45;2.60;;;17.30;74.50;;;;;;5032180;28;20055;-83
2022/06/04 03:38:55;;;;;;;7.25;2.90;;;17.30;74.70;;;;;;4999358;28;20440;-83
2022/06/04 03:41:21;;;;;;;8.38;3.03;;;17.30;75.00;;;;;;5031917;28;20056;-84
2022/06/04 03:43:48;;;;;;;7.53;3.28;;;17.30;75.20;;;;;;5018480;28;20516;-83
2022/06/04 03:46:14;;;;;;;6.03;3.00;;;17.30;75.50;;;;;;5035916;28;20471;-83
2022/06/04 03:48:40;;;;;;;10.02;3.05;;;17.20;75.70;;;;;;5035924;28;20030;-84
2022/06/04 03:51:06;;;;;;;8.38;2.85;;;17.20;76.00;;;;;;5019421;28;20029;-83
2022/06/04 03:53:31;;;;;;;8.38;3.50;;;17.20;76.40;;;;;;5036994;28;20163;-84
2022/06/04 03:55:57;;;;;;;7.30;3.00;;;17.10;76.60;;;;;;5035875;28;20026;-84
2022/06/04 03:58:29;;;;;;;6.30;2.80;;;17.10;76.90;;;;;;5033355;28;20025;-84
2022/06/04 04:00:56;;;;;;;4.80;3.10;;;17.10;77.30;;;;;;4982853;28;20034;-84
2022/06/04 04:03:21;;;;;;;5.85;3.05;;;17.10;77.60;;;;;;5018546;28;20029;-84
2022/06/04 04:05:53;;;;;;;6.50;3.63;;;17.10;77.90;;;;;;4999326;28;20109;-84
2022/06/04 04:08:21;;;;;;;7.20;3.83;;;17.00;78.40;;;;;;5036421;28;20032;-83
2022/06/04 04:10:47;;;;;;;8.38;3.85;;;17.00;79.60;;;;;;5016421;28;20631;-84
2022/06/04 04:13:15;;;;;;;7.25;3.42;;;17.00;81.70;;;;;;5014952;28;20084;-84
2022/06/04 04:15:42;;;;;;;7.13;3.30;;;17.00;82.40;;;;;;5035452;28;20025;-85
2022/06/04 04:18:08;;;;;;;7.55;3.83;;;17.00;81.70;;;;;;5035564;28;20044;-84
2022/06/04 04:20:37;;;;;;;9.63;4.00;;;17.00;81.30;;;;;;5035243;28;20479;-85
2022/06/04 04:23:05;;;;;;;6.32;3.20;;;17.00;81.30;;;;;;5013821;28;20018;-85
2022/06/04 04:25:32;;;;;;;6.40;3.22;;;16.90;82.30;;;;;;5015432;28;20450;-85
2022/06/04 04:27:59;;;;;;;7.20;3.92;;;16.90;82.10;;;;;;5031635;28;20463;-85
2022/06/04 04:30:28;;;;;;;10.68;3.58;;;16.90;82.00;;;;;;5035263;28;20487;-86
2022/06/04 04:32:54;;;;;;;8.82;3.80;;;16.90;81.90;;;;;;5018618;28;20025;-85
2022/06/04 04:35:24;;;;;;;7.68;3.30;;;16.80;82.00;;;;;;5018723;28;20030;-85
2022/06/04 04:37:50;;;;;;;7.07;3.75;;;16.80;82.00;;;;;;5034977;28;20487;-86
2022/06/04 04:40:18;;;;;;;7.93;3.65;;;16.80;82.20;;;;;;5035122;28;20028;-85
2022/06/04 04:42:45;;;;;;;6.88;3.70;;;16.80;82.40;;;;;;5036319;28;20056;-85
2022/06/04 04:45:11;;;;;;;6.13;3.40;;;16.80;82.50;;;;;;5033695;28;20017;-84
2022/06/04 04:47:42;;;;;;;7.63;3.75;;;16.70;82.60;;;;;;5036232;28;20022;-85
2022/06/04 04:50:21;;;;;;;8.00;3.85;;;16.70;82.80;;;;;;5035032;28;20013;-85
2022/06/04 04:52:48;;;;;;;7.25;3.65;;;16.70;83.00;;;;;;5035002;28;20467;-85
2022/06/04 04:55:13;;;;;;;7.63;4.28;;;16.70;83.20;;;;;;5001882;28;20033;-85
2022/06/04 04:57:39;;;;;;;7.10;3.20;;;16.70;83.40;;;;;;5018395;28;20022;-85
2022/06/04 05:00:07;;;;;;;6.97;4.35;;;16.70;83.60;;;;;;4995034;28;20038;-85
2022/06/04 05:02:33;;;;;;;9.63;3.85;;;16.70;84.00;;;;;;5049296;28;20367;-85
2022/06/04 05:04:59;;;;;;;9.32;4.15;;;16.70;84.10;;;;;;4998611;28;20032;-85
2022/06/04 05:07:24;;;;;;;7.55;3.53;;;16.70;84.30;;;;;;5031193;28;20030;-85
2022/06/04 05:09:50;;;;;;;6.70;3.55;;;16.70;84.90;;;;;;4998475;28;20026;-85
2022/06/04 05:12:16;;;;;;;7.53;3.92;;;16.70;84.90;;;;;;5033236;28;20112;-85
2022/06/04 05:14:42;;;;;;;7.82;3.60;;;16.80;85.20;;;;;;5018114;28;20056;-85
2022/06/04 05:17:08;;;;;;;8.73;4.35;;;16.70;85.30;;;;;;5002078;28;20072;-85
2022/06/04 05:19:34;;;;;;;10.25;4.05;;;16.70;85.50;;;;;;5034395;28;20045;-85
2022/06/04 05:22:00;;;;;;;7.88;4.40;;;16.80;85.70;;;;;;5017805;28;20034;-85
2022/06/04 05:24:31;;;;;;;8.43;3.90;;;16.70;85.60;;;;;;4984871;28;20025;-85
2022/06/04 05:26:59;;;;;;;8.10;3.90;;;16.80;85.70;;;;;;5035845;28;20483;-85
2022/06/04 05:29:25;;;;;;;8.68;3.85;;;16.80;85.80;;;;;;5033521;28;20022;-85
2022/06/04 05:31:54;;;;;;;8.07;3.92;;;16.70;85.80;;;;;;5013436;28;20049;-85
2022/06/04 05:34:21;;;;;;;8.40;3.60;;;16.80;86.00;;;;;;5017550;28;20021;-85
2022/06/04 05:36:47;;;;;;;9.48;3.92;;;16.70;86.00;;;;;;5017892;28;20060;-85
2022/06/04 05:39:14;;;;;;;7.43;4.10;;;16.70;86.20;;;;;;5017534;28;20033;-85
2022/06/04 05:41:40;;;;;;;6.13;3.92;;;16.70;86.30;;;;;;5017493;28;20035;-85
2022/06/04 05:44:06;;;;;;;6.35;3.92;;;16.80;86.60;;;;;;5017571;28;20067;-85
2022/06/04 05:46:33;;;;;;;7.70;4.00;;;16.70;86.80;;;;;;5017301;28;20026;-85
2022/06/04 05:49:01;;;;;;;7.75;4.20;;;16.70;87.00;;;;;;5016407;28;20033;-85
2022/06/04 05:51:29;;;;;;;7.05;4.30;;;16.70;87.00;;;;;;5017466;28;20041;-85
2022/06/04 05:53:56;;;;;;;7.18;4.28;;;16.70;86.80;;;;;;5017292;28;20029;-85
2022/06/04 05:56:28;;;;;;;8.45;4.07;;;16.70;87.00;;;;;;5017399;28;20120;-85
2022/06/04 05:58:57;;;;;;;8.30;4.28;;;16.70;87.00;;;;;;4999992;28;20057;-85
2022/06/04 06:01:25;;;;;;;8.27;3.97;;;16.70;87.00;;;;;;5034859;28;20028;-85
2022/06/04 06:03:51;;;;;;;8.02;4.57;;;16.70;87.20;;;;;;5000723;28;20442;-85
2022/06/04 06:06:19;;;;;;;8.00;4.57;;;16.70;87.40;;;;;;5000239;28;20022;-85
2022/06/04 06:08:45;;;;;;;13.32;4.30;;;16.70;87.60;;;;;;4993489;28;20025;-85
2022/06/04 06:11:14;;;;;;;8.52;3.95;;;16.70;87.70;;;;;;4999875;28;20022;-85
2022/06/04 06:13:41;;;;;;;7.75;4.40;;;16.70;87.80;;;;;;5009496;28;20022;-85
2022/06/04 06:16:11;;;;;;;6.75;4.45;;;16.70;88.10;;;;;;5000424;28;20025;-85
2022/06/04 06:18:37;;;;;;;7.45;4.50;;;16.80;88.20;;;;;;5034575;28;20053;-85
2022/06/04 06:21:08;;;;;;;7.13;3.95;;;16.70;88.40;;;;;;5013754;28;20045;-85
2022/06/04 06:23:35;;;;;;;9.32;4.13;;;16.80;88.50;;;;;;5011809;28;20026;-85
2022/06/04 06:26:06;;;;;;;8.90;4.53;;;16.80;88.50;;;;;;5034458;28;20095;-86
2022/06/04 06:28:36;;;;;;;9.35;4.88;;;16.80;88.30;;;;;;5000660;28;20434;-85
2022/06/04 06:31:02;;;;;;;7.97;3.83;;;16.80;88.40;;;;;;5000205;28;20021;-85
2022/06/04 06:33:28;;;;;;;7.80;4.88;;;16.80;88.50;;;;;;5013293;28;20025;-85
2022/06/04 06:35:58;;;;;;;11.27;4.32;;;16.80;88.50;;;;;;5016566;28;20561;-85
2022/06/04 06:38:24;;;;;;;8.90;4.65;;;16.80;88.70;;;;;;5002776;28;20040;-85
2022/06/04 06:40:52;;;;;;;9.10;4.50;;;16.80;88.60;;;;;;5016454;28;20013;-85
2022/06/04 06:43:18;;;;;;;6.07;3.83;;;16.80;88.80;;;;;;5018917;28;20101;-85
2022/06/04 06:45:44;;;;;;;8.63;3.90;;;16.80;89.10;;;;;;4993609;28;20034;-86
2022/06/04 06:48:11;;;;;;;8.25;4.28;;;16.80;89.20;;;;;;5027305;28;20498;-85
2022/06/04 06:50:38;;;;;;;8.50;4.38;;;16.80;89.40;;;;;;5032655;28;20072;-85
2022/06/04 06:53:04;;;;;;;9.07;4.18;;;16.80;89.60;;;;;;5028023;28;20026;-86
2022/06/04 06:55:30;;;;;;;9.25;4.32;;;16.80;89.70;;;;;;5016212;28;20491;-85
2022/06/04 06:57:56;;;;;;;8.90;4.38;;;16.80;90.00;;;;;;5028967;28;20498;-86
2022/06/04 07:00:22;;;;;;;9.18;4.43;;;16.80;90.00;;;;;;5026538;28;20029;-85
2022/06/04 07:02:48;;;;;;;8.93;4.55;;;16.80;90.00;;;;;;5033492;28;20025;-85
2022/06/04 07:05:14;;;;;;;8.20;4.10;;;16.80;90.10;;;;;;5014642;28;20034;-85
2022/06/04 07:07:40;;;;;;;8.18;4.40;;;16.80;90.10;;;;;;5009947;28;20529;-85
2022/06/04 07:10:07;;;;;;;8.85;4.60;;;16.80;90.10;;;;;;5015579;28;20497;-85
2022/06/04 07:12:33;;;;;;;6.50;3.72;;;16.80;90.20;;;;;;5011561;28;20108;-85
2022/06/04 07:14:59;;;;;;;7.90;4.55;;;16.80;90.30;;;;;;5033454;28;20138;-85
2022/06/04 07:17:25;;;;;;;9.27;4.80;;;16.80;90.40;;;;;;5015224;28;20132;-85
2022/06/04 07:19:50;;;;;;;7.63;4.43;;;16.80;90.50;;;;;;4999250;28;20457;-85
2022/06/04 07:22:16;;;;;;;7.13;4.35;;;16.90;90.60;;;;;;5033965;28;20387;-85
2022/06/04 07:24:42;;;;;;;6.50;3.90;;;16.80;90.70;;;;;;5016635;28;20091;-85
2022/06/04 07:27:08;;;;;;;7.63;4.05;;;16.90;90.70;;;;;;5016166;28;20034;-85
2022/06/04 07:29:35;;;;;;;9.30;4.03;;;16.90;90.80;;;;;;4998941;28;20026;-85
2022/06/04 07:32:01;;;;;;;9.50;4.45;;;16.90;90.90;;;;;;4989387;28;20033;-85
2022/06/04 07:34:26;;;;;;;9.98;4.45;;;16.90;90.90;;;;;;5002195;28;20164;-85
2022/06/04 07:36:53;;;;;;;6.50;4.10;;;16.90;90.90;;;;;;5009292;28;20027;-85
2022/06/04 07:39:19;;;;;;;6.70;4.25;;;16.90;91.00;;;;;;5009875;28;20038;-85
2022/06/04 07:41:51;;;;;;;6.55;4.05;;;16.90;91.00;;;;;;5010921;28;20029;-86
2022/06/04 07:44:17;;;;;;;9.15;4.40;;;16.90;91.00;;;;;;5008397;28;20087;-85
2022/06/04 07:46:44;;;;;;;9.07;4.55;;;16.90;91.00;;;;;;5000168;28;20153;-86
2022/06/04 07:49:11;;;;;;;9.40;5.10;;;17.00;91.00;;;;;;5006764;28;20423;-85
2022/06/04 07:51:38;;;;;;;10.80;4.35;;;17.00;90.90;;;;;;5033459;28;20020;-84
2022/06/04 07:54:05;;;;;;;8.73;5.18;;;17.00;90.90;;;;;;5033121;28;20467;-85
2022/06/04 07:56:31;;;;;;;10.40;4.35;;;17.00;90.90;;;;;;4999318;28;20392;-84
2022/06/04 07:58:57;;;;;;;8.50;4.28;;;17.10;90.90;;;;;;5029203;28;20022;-85
2022/06/04 08:01:23;;;;;;;10.60;4.85;;;17.10;90.90;;;;;;5012161;28;20084;-84
2022/06/04 08:03:50;;;;;;;8.20;4.25;;;17.10;91.00;;;;;;5013152;28;20026;-85
2022/06/04 08:06:17;;;;;;;8.98;4.82;;;17.10;90.90;;;;;;5024427;28;20010;-85
2022/06/04 08:08:45;;;;;;;7.88;4.40;;;17.10;91.00;;;;;;4995621;28;20014;-85
2022/06/04 08:13:55;;;;;;;7.60;3.70;;;17.20;91.10;;;;;;5033399;28;20044;-84
2022/06/04 08:16:21;;;;;;;7.55;4.05;;;17.20;91.10;;;;;;5015556;28;20033;-84
2022/06/04 08:18:48;;;;;;;10.95;3.83;;;17.20;91.10;;;;;;5032049;28;20037;-84
2022/06/04 08:27:36;;;;;;;5.78;3.70;;;17.30;91.00;;;;;;5092683;22;20104;-86
2022/06/04 08:30:03;;;;;;;7.72;4.35;;;17.30;90.90;;;;;;4999978;28;20014;-86
2022/06/04 08:32:29;;;;;;;6.95;4.00;;;17.30;90.90;;;;;;4999347;28;20022;-86
2022/06/04 08:34:54;;;;;;;8.25;4.13;;;17.40;91.00;;;;;;4978527;28;20029;-86
2022/06/04 08:37:20;;;;;;;9.07;4.40;;;17.40;91.00;;;;;;4970720;28;20113;-86
2022/06/04 08:39:46;;;;;;;12.45;3.67;;;17.40;91.00;;;;;;5014630;28;20030;-85
2022/06/04 08:42:11;;;;;;;7.18;4.10;;;17.40;91.00;;;;;;4995761;28;20393;-85
2022/06/04 08:44:46;;;;;;;9.70;4.45;;;17.50;91.10;;;;;;4997153;28;20037;-85
2022/06/04 08:47:32;;;;;;;9.70;4.40;;;17.50;91.10;;;;;;4983829;28;20101;-86
2022/06/04 08:50:10;;;;;;;5.63;3.95;;;17.50;91.10;;;;;;4996238;28;20048;-86
2022/06/04 08:52:49;;;;;;;7.88;4.10;;;17.50;91.00;;;;;;4998572;28;20029;-87
2022/06/04 08:58:53;;;;;;;6.30;4.15;;;17.60;91.00;;;;;;5015660;28;20105;-84
2022/06/04 09:01:35;;;;;;;8.48;4.13;;;17.60;91.00;;;;;;5005153;28;20030;-85
2022/06/04 09:04:22;;;;;;;8.48;3.90;;;17.70;91.00;;;;;;5013132;28;20438;-84
2022/06/04 09:07:07;;;;;;;9.10;4.13;;;17.70;91.00;;;;;;5007980;28;20053;-85
2022/06/04 09:09:52;;;;;;;9.88;5.18;;;17.70;91.00;;;;;;4998636;28;20164;-85
2022/06/04 09:12:29;;;;;;;7.13;4.22;;;17.70;90.90;;;;;;4997907;28;20026;-85
2022/06/04 09:15:04;;;;;;;6.68;3.53;;;17.80;90.90;;;;;;4998341;28;20026;-84
2022/06/04 09:17:39;;;;;;;7.90;4.32;;;17.80;90.90;;;;;;4997709;28;20045;-84
2022/06/04 09:20:15;;;;;;;8.55;4.70;;;17.80;90.90;;;;;;4997641;28;20026;-84
2022/06/04 09:22:43;;;;;;;7.88;4.25;;;17.90;90.90;;;;;;4997769;28;20030;-85
2022/06/04 09:25:19;;;;;;;8.50;4.25;;;17.90;91.10;;;;;;4998027;28;20151;-84
2022/06/04 09:27:47;;;;;;;9.07;3.50;;;17.90;90.70;;;;;;4995497;28;20264;-85
2022/06/04 09:30:17;;;;;;;7.65;4.15;;;18.00;90.70;;;;;;4986631;28;20057;-84
2022/06/04 09:32:46;;;;;;;9.38;4.00;;;18.00;90.80;;;;;;4998028;28;20033;-84
2022/06/04 09:35:25;;;;;;;7.57;4.10;;;18.10;90.80;;;;;;4998183;28;20026;-84
2022/06/04 09:37:52;;;;;;;6.75;4.18;;;18.10;90.80;;;;;;4997960;28;20026;-84
2022/06/04 09:40:34;;;;;;;6.53;4.03;;;18.20;90.70;;;;;;4989493;28;20019;-85
2022/06/04 09:43:18;;;;;;;5.82;4.10;;;18.20;90.60;;;;;;5011717;28;20021;-85
2022/06/04 09:45:52;;;;;;;12.52;4.50;;;18.30;90.60;;;;;;4981491;28;20045;-85
2022/06/04 09:48:24;;;;;;;7.97;4.20;;;18.30;90.50;;;;;;5015080;28;20151;-86
2022/06/04 09:50:57;;;;;;;8.95;3.80;;;18.30;90.40;;;;;;4997579;28;20049;-85
2022/06/04 09:53:32;;;;;;;8.38;4.50;;;18.40;90.30;;;;;;4997533;28;20363;-85
2022/06/04 09:56:08;;;;;;;9.38;4.57;;;18.50;90.30;;;;;;4997752;28;20454;-84
2022/06/04 09:58:39;;;;;;;7.40;4.15;;;18.50;90.20;;;;;;5014426;28;20018;-85
2022/06/04 10:01:20;;;;;;;7.75;4.15;;;18.60;90.20;;;;;;4998610;28;20378;-83
2022/06/04 10:03:59;;;;;;;7.07;3.75;;;18.70;90.10;;;;;;4999006;28;20058;-86
2022/06/04 10:06:27;;;;;;;7.47;4.40;;;18.80;90.20;;;;;;4998232;28;20037;-85
2022/06/04 10:11:55;;;;;;;8.93;4.40;;;18.90;90.00;;;;;;5015480;28;20052;-84
2022/06/04 10:14:37;;;;;;;9.77;4.55;;;19.00;89.90;;;;;;4991542;28;20053;-85
2022/06/04 10:17:04;;;;;;;7.95;4.32;;;19.10;89.90;;;;;;4997370;28;20490;-85
2022/06/04 10:19:30;;;;;;;7.40;4.05;;;19.20;90.00;;;;;;4983207;28;20018;-85
2022/06/04 10:22:12;;;;;;;7.07;3.83;;;19.30;89.80;;;;;;4996088;28;20022;-85
2022/06/04 10:24:50;;;;;;;7.40;3.72;;;19.40;89.70;;;;;;4995451;28;20117;-86
2022/06/04 10:27:45;;;;;;;10.45;4.40;;;19.50;89.40;;;;;;4996929;28;20064;-85
2022/06/04 10:30:38;;;;;;;5.15;3.40;;;19.60;88.90;;;;;;4992561;28;20022;-85
2022/06/04 10:33:14;;;;;;;7.72;3.60;;;19.60;88.30;;;;;;4993692;28;20049;-87
2022/06/04 10:36:21;;;;;;;8.50;3.72;;;19.70;88.60;;;;;;4995325;28;20026;-85
2022/06/04 10:38:58;;;;;;;6.68;3.90;;;19.70;87.70;;;;;;4947362;29;20032;-85
2022/06/04 10:41:44;;;;;;;5.72;3.58;;;19.80;87.50;;;;;;4934795;29;20032;-84
2022/06/04 10:44:22;;;;;;;8.32;3.65;;;19.80;87.20;;;;;;4990727;28;20050;-85
2022/06/04 10:47:05;;;;;;;10.15;4.88;;;19.80;86.90;;;;;;5010827;28;20025;-85
2022/06/04 10:50:01;;;;;;;28.60;13.13;;;19.90;86.90;;;;;;5012854;28;20026;-85
2022/06/04 10:52:45;;;;;;;9.88;5.65;;;19.90;87.00;;;;;;5011056;28;20022;-85
2022/06/04 10:55:19;;;;;;;7.30;4.43;;;19.90;87.30;;;;;;4997260;28;20029;-84
2022/06/04 10:58:18;;;;;;;5.70;3.63;;;20.00;87.20;;;;;;5014036;28;20075;-85
2022/06/04 11:01:04;;;;;;;5.47;3.15;;;20.00;87.00;;;;;;4967821;28;20101;-85
2022/06/04 11:04:00;;;;;;;8.20;3.80;;;20.10;87.00;;;;;;4996259;28;20026;-85
2022/06/04 11:06:36;;;;;;;7.38;3.20;;;20.10;86.80;;;;;;4996007;28;20028;-85
2022/06/04 11:09:14;;;;;;;5.72;3.42;;;20.20;86.90;;;;;;4996650;28;20026;-86
2022/06/04 11:11:53;;;;;;;6.57;3.88;;;20.20;86.90;;;;;;4983847;28;20037;-85
2022/06/04 11:14:33;;;;;;;5.95;3.88;;;20.30;86.90;;;;;;4983461;28;20041;-84
2022/06/04 11:17:11;;;;;;;5.57;3.40;;;20.30;86.70;;;;;;4982093;28;20486;-85
2022/06/04 11:19:59;;;;;;;6.05;3.78;;;20.30;86.50;;;;;;4977008;28;20276;-85
2022/06/04 11:22:50;;;;;;;6.38;3.38;;;20.40;86.40;;;;;;5008104;28;20023;-85
2022/06/04 11:25:34;;;;;;;7.00;3.50;;;20.50;86.20;;;;;;4989587;28;20120;-85
2022/06/04 11:28:10;;;;;;;7.53;3.35;;;20.50;86.00;;;;;;4984023;28;20045;-84
2022/06/04 11:31:01;;;;;;;5.80;3.15;;;20.60;85.90;;;;;;4996075;28;20026;-85
2022/06/04 11:33:50;;;;;;;6.82;3.13;;;20.60;85.80;;;;;;4994422;28;20081;-85
2022/06/04 11:36:16;;;;;;;6.07;2.88;;;20.70;85.80;;;;;;4994619;28;20026;-84
2022/06/04 11:38:51;;;;;;;5.90;3.05;;;20.80;85.80;;;;;;4995898;28;20037;-84
2022/06/04 11:42:04;;;;;;;4.95;2.90;;;20.80;85.50;;;;;;4992623;28;20019;-86
2022/06/04 11:44:54;;;;;;;6.68;2.90;;;20.90;85.40;;;;;;4978534;28;20031;-85
2022/06/04 11:47:38;;;;;;;5.40;3.00;;;21.00;85.20;;;;;;5002873;28;20066;-85
2022/06/04 11:50:25;;;;;;;5.95;3.15;;;21.00;85.00;;;;;;4995708;28;20022;-85
2022/06/04 11:53:28;;;;;;;6.20;3.08;;;21.00;84.70;;;;;;5013550;28;20022;-85
2022/06/04 11:56:13;;;;;;;6.15;3.72;;;21.10;84.40;;;;;;5013665;28;20018;-85
2022/06/04 11:58:50;;;;;;;6.70;3.97;;;21.20;84.30;;;;;;5013728;28;20018;-84
2022/06/04 12:01:27;;;;;;;6.28;3.17;;;21.20;84.00;;;;;;5013602;28;20030;-86
2022/06/04 12:03:59;;;;;;;5.00;2.80;;;21.30;83.90;;;;;;4997272;28;20034;-85
2022/06/04 12:07:10;;;;;;;5.75;3.22;;;21.30;83.70;;;;;;5017306;28;20033;-85
2022/06/04 12:09:59;;;;;;;7.15;3.20;;;21.40;83.30;;;;;;4952961;28;20038;-87
2022/06/04 12:12:43;;;;;;;5.45;3.10;;;21.40;83.30;;;;;;4980387;28;20065;-84
2022/06/04 12:15:26;;;;;;;5.65;2.95;;;21.50;83.00;;;;;;5012437;28;20096;-87
2022/06/04 12:17:59;;;;;;;5.13;3.13;;;21.60;82.70;;;;;;4990437;28;20030;-85
2022/06/04 12:26:38;;;;;;;4.13;2.90;;;21.70;81.70;;;;;;5012936;28;20128;-85
2022/06/04 12:29:42;;;;;;;5.32;2.95;;;21.80;81.40;;;;;;5017057;28;20033;-85
2022/06/04 12:32:25;;;;;;;5.45;3.13;;;21.90;81.30;;;;;;4985694;28;20478;-84
2022/06/04 12:35:05;;;;;;;7.00;3.60;;;21.90;81.30;;;;;;5016397;28;20030;-84
2022/06/04 12:37:36;;;;;;;5.50;3.08;;;22.00;81.20;;;;;;5016857;28;20160;-85
2022/06/04 12:40:22;;;;;;;5.10;3.05;;;22.00;80.90;;;;;;5016547;28;20068;-86
2022/06/04 12:43:18;;;;;;;6.60;3.05;;;22.10;80.60;;;;;;5016317;28;20044;-84
2022/06/04 12:45:53;;;;;;;5.57;3.13;;;22.20;80.00;;;;;;4999468;28;20046;-87
2022/06/04 12:48:36;;;;;;;4.43;2.95;;;22.30;79.50;;;;;;5014954;28;20101;-84
2022/06/04 12:51:19;;;;;;;4.70;2.92;;;22.30;79.10;;;;;;4998915;28;20378;-86
2022/06/04 12:54:00;;;;;;;6.35;3.10;;;22.40;78.80;;;;;;5006143;28;20076;-85
2022/06/04 12:56:32;;;;;;;5.45;3.20;;;22.50;78.60;;;;;;4998752;28;20101;-85
2022/06/04 12:59:02;;;;;;;4.15;2.95;;;22.50;78.10;;;;;;5016124;28;20030;-86
2022/06/04 13:01:32;;;;;;;6.35;3.20;;;22.60;78.10;;;;;;4998848;28;20022;-85
2022/06/04 13:04:09;;;;;;;5.82;2.88;;;22.60;77.80;;;;;;4992854;28;20505;-86
2022/06/04 13:06:39;;;;;;;6.53;3.10;;;22.70;77.60;;;;;;5007501;28;20018;-87
2022/06/04 13:09:38;;;;;;;4.20;2.70;;;22.80;77.50;;;;;;4977636;28;20026;-85
2022/06/04 13:12:23;;;;;;;6.35;2.90;;;22.80;77.40;;;;;;4996038;28;20033;-85
2022/06/04 13:15:23;;;;;;;8.50;3.40;;;22.90;77.30;;;;;;5013316;28;20109;-86
2022/06/04 13:17:52;;;;;;;6.72;3.40;;;23.00;76.80;;;;;;4989229;28;20117;-84
2022/06/04 13:20:24;;;;;;;6.95;3.50;;;23.00;76.80;;;;;;4978955;28;20437;-85
2022/06/04 13:22:57;;;;;;;7.82;3.63;;;23.10;76.20;;;;;;4997418;28;20022;-83
2022/06/04 13:25:41;;;;;;;6.45;2.88;;;23.20;75.70;;;;;;5015165;28;20072;-84
2022/06/04 13:28:24;;;;;;;7.40;3.25;;;23.20;75.60;;;;;;4997421;28;20494;-84
2022/06/04 13:30:51;;;;;;;5.10;2.67;;;23.30;75.10;;;;;;4996868;28;20041;-83
2022/06/04 13:33:17;;;;;;;5.85;3.47;;;23.30;74.60;;;;;;5015262;28;20469;-85
2022/06/04 13:35:49;;;;;;;7.10;3.20;;;23.40;74.10;;;;;;5015331;28;20080;-84
2022/06/04 13:38:29;;;;;;;6.93;3.45;;;23.50;73.60;;;;;;4998321;28;20105;-85
2022/06/04 13:41:04;;;;;;;5.93;2.90;;;23.50;73.10;;;;;;4999581;28;20029;-85
2022/06/04 13:43:46;;;;;;;6.70;2.80;;;23.60;73.00;;;;;;4999715;28;20366;-84
2022/06/04 13:46:23;;;;;;;6.05;3.47;;;23.70;73.80;;;;;;5015579;28;20088;-84
2022/06/04 13:48:57;;;;;;;5.93;3.60;;;23.70;72.70;;;;;;4985768;28;20027;-85